Bissett, Canada
Current Conditions -  °F | °C
As of 6:00 PM on Wednesday 22 Oct 2014 (Local Time) from CYRL Reporting Station
Broken Clouds Broken Clouds  
Wind Chill: 14°   Ceiling: 9000
Heat Index: 14°   Visibility: 15mi
Dew Point:   Wind: 9mph
Humidity: 63%   Direction: 170°S
Pressure: 29.81"   Gusts: 17mph
Location:  51.02°N, 95.67°W
Report Text: CYRL 222300Z 17008G15KT 150V210 15SM SCT029 BKN090 BKN240 14/07 A2981 RMK SC3AC2CI2 CVCTV CLD EMBD SLP106 DENSITY ALT 1500FT
Loading
Personal Weather Stations






























Interactive Weather Map
Tropical Storm Tracking
New forecast layout! Learn more

10-Day Weather Forecast

Advertisements
Track Severe Weather on mobile